Airfield :
LOGIN :

Register | Disclaimer

   EN    FR    IT 

 










Legend :    VFR   Marginal VFR   IFR   Intensive IFR   Very Intensive IFR
Visi :
Ceiling :
>= 8 km
>= 3000ft
5 to 8 km
1000 to 3000 ft
1500m to 5 km
500 to 1000 ft
800 to 1500m
200 to 500 ft
< 800m
< 200 ft
Symbols :   Thunderstorms  Fog  Heavy snow  Heavy precipitations  Wind > 20 kt
SIGMETs :     Misc.  Thunderstorms  Icing  Turbulence  Mountain Waves  Volcanic Ashes







- Airport Elevation : 230 ft


ETHB - Buckeburg Army

CURRENT METAR :
  • 250920Z 32008KT 9999 FEW009 SCT015 BKN023 16/12 Q1023 WHT WHT TEMPO GRN

EXPIRED METARs :
  • 250841Z 31010KT 9999 FEW009 BKN014 BKN025 15/13 Q1023 GRN GRN TEMPO YLO
  • 250820Z 32007KT 9999 SCT005 BKN008 BKN013 15/13 Q1022 GRN GRN TEMPO YLO
  • 250745Z 31008KT 7000 -DZ SCT005 BKN008 BKN013 14/13 Q1022 GRN GRN TEMPO YLO
  • 250736Z 30008KT 4000 -DZ BR SCT003 BKN005 14/13 Q1022 YLO GRN TEMPO YLO
  • 250720Z 29006KT 4000 BR SCT003 BKN007 14/13 Q1022 GRN GRN TEMPO YLO
  • 250704Z 31007KT 3500 -DZ BR SCT005 BKN008 BKN025 14/13 Q1022 YLO GRN TEMPO YLO

TAF TAF ETHB
Valid from the 25 at 08:00 until the 25 at 17:00 UTC


250719Z 2508/2517 30007KT 7000 NSW FEW005 BKN008
TEMPO 2508/2510 30006KT 3000 -RADZ FEW003 BKN005
BECMG 2510/2512 30006KT 9000 NSW SCT012 BKN022
No reported NOTAMs for that airfield.



MET'MAP, your aeronautical weather chart ! - Copyright ORBIFLY December 2007 - Disclaimer

ORBIFLY MET'MAP TEAM :

Programming & Development : Alexandra Zaïnal
Concept & Development : Baudouin d'Aumeries
Co-Development & Prog : Marc-Olivier Méhu
Technical & hardware support : Manuel Goepfert

Contact : metmap@orbifly.com




SOURCES & CREDITS :

   NOAA